createdAt,value
2022-09-27T00:00:08.284Z,22.00
2022-09-27T00:03:17.486Z,20.00
2022-09-27T00:06:25.284Z,22.20
2022-09-27T00:09:28.596Z,19.00
2022-09-27T00:12:31.910Z,20.00
2022-09-27T00:15:36.665Z,17.50
2022-09-27T00:18:40.844Z,18.00
2022-09-27T00:21:45.354Z,18.00
2022-09-27T00:24:48.624Z,19.00
2022-09-27T00:27:52.193Z,22.00
2022-09-27T00:30:57.509Z,22.00
2022-09-27T00:34:03.040Z,22.00
2022-09-27T00:37:07.062Z,20.80
2022-09-27T00:40:13.170Z,20.40
2022-09-27T00:43:21.103Z,18.60
2022-09-27T00:46:30.971Z,21.50
2022-09-27T00:49:39.788Z,17.50
2022-09-27T00:52:46.900Z,21.80
2022-09-27T00:55:55.763Z,18.60
2022-09-27T00:59:03.763Z,19.20
2022-09-27T01:02:09.243Z,19.80
2022-09-27T01:05:15.034Z,18.40
2022-09-27T01:08:18.361Z,18.60
2022-09-27T01:11:33.254Z,17.50
2022-09-27T01:14:50.869Z,20.00
2022-09-27T01:18:11.204Z,21.00
2022-09-27T01:21:43.222Z,20.60
2022-09-27T01:25:24.686Z,18.20
2022-09-27T01:28:48.597Z,19.00
2022-09-27T01:32:00.348Z,20.20
2022-09-27T01:35:09.769Z,20.00
2022-09-27T01:38:25.373Z,20.75
2022-09-27T01:41:36.342Z,19.75
2022-09-27T01:45:11.774Z,18.40
2022-09-27T01:48:33.567Z,22.00
2022-09-27T01:51:46.385Z,19.00
2022-09-27T01:54:54.970Z,23.75
2022-09-27T01:58:15.286Z,21.60
2022-09-27T02:01:23.496Z,22.60
2022-09-27T02:04:34.458Z,22.75
2022-09-27T02:07:49.573Z,20.80
2022-09-27T02:10:57.521Z,22.00
2022-09-27T02:14:09.261Z,21.60
2022-09-27T02:17:32.600Z,21.40
2022-09-27T02:20:42.571Z,23.80
2022-09-27T02:23:50.249Z,22.40
2022-09-27T02:27:02.880Z,21.00
2022-09-27T02:30:12.345Z,20.00
2022-09-27T02:33:17.526Z,21.25
2022-09-27T02:36:22.847Z,20.00
2022-09-27T02:39:26.508Z,19.50
2022-09-27T02:42:44.366Z,23.60
2022-09-27T02:46:01.109Z,19.50
2022-09-27T02:49:17.072Z,20.00
2022-09-27T02:52:44.297Z,22.00
2022-09-27T02:55:57.371Z,21.00
2022-09-27T02:59:37.470Z,19.60
2022-09-27T03:02:59.193Z,18.33
2022-09-27T03:06:24.268Z,18.75
2022-09-27T03:09:31.203Z,20.40
2022-09-27T03:12:35.165Z,19.50
2022-09-27T03:15:38.748Z,18.00
2022-09-27T03:18:42.411Z,18.25
2022-09-27T03:22:04.263Z,21.00
2022-09-27T03:25:11.256Z,20.20
2022-09-27T03:28:15.283Z,21.40
2022-09-27T03:31:20.151Z,24.00
2022-09-27T03:34:43.493Z,20.20
2022-09-27T03:37:47.864Z,18.00
2022-09-27T03:40:52.991Z,17.00
2022-09-27T03:43:58.307Z,21.60
2022-09-27T03:47:01.801Z,20.00
2022-09-27T03:50:05.764Z,19.00
2022-09-27T03:53:09.782Z,19.50
2022-09-27T03:56:15.079Z,21.00
2022-09-27T03:59:18.400Z,15.80
2022-09-27T04:02:47.845Z,19.00
2022-09-27T04:06:01.148Z,22.00
2022-09-27T04:09:13.342Z,21.00
2022-09-27T04:12:33.279Z,18.60
2022-09-27T04:15:37.745Z,20.00
2022-09-27T04:18:59.900Z,20.00
2022-09-27T04:22:29.509Z,21.00
2022-09-27T04:25:33.700Z,20.00
2022-09-27T04:28:45.417Z,19.00
2022-09-27T04:31:49.240Z,17.50
2022-09-27T04:35:36.512Z,18.00
2022-09-27T04:38:39.928Z,19.25
2022-09-27T04:41:45.179Z,17.00
2022-09-27T04:44:50.280Z,17.40
2022-09-27T04:47:53.678Z,19.00
2022-09-27T04:50:58.571Z,20.00
2022-09-27T04:54:02.021Z,21.00
2022-09-27T04:57:12.368Z,18.00
2022-09-27T05:00:18.481Z,19.00
2022-09-27T05:03:25.065Z,18.40
2022-09-27T05:06:32.761Z,20.00
2022-09-27T05:09:42.561Z,17.00
2022-09-27T05:12:46.305Z,16.80
2022-09-27T05:15:54.728Z,18.00
2022-09-27T05:19:31.917Z,16.00
2022-09-27T05:22:48.781Z,19.00
2022-09-27T05:25:57.481Z,18.20
2022-09-27T05:29:01.236Z,18.00
2022-09-27T05:32:06.265Z,20.00
2022-09-27T05:35:09.993Z,20.20
2022-09-27T05:38:13.469Z,21.00
2022-09-27T05:41:20.240Z,21.00
2022-09-27T05:44:23.921Z,21.60
2022-09-27T05:47:35.201Z,18.60
2022-09-27T05:50:38.901Z,21.60
2022-09-27T05:53:42.284Z,24.00
2022-09-27T05:56:58.540Z,24.75
2022-09-27T06:00:12.049Z,23.00
2022-09-27T06:03:16.714Z,21.50
2022-09-27T06:06:38.800Z,20.00
2022-09-27T06:09:44.337Z,22.40
2022-09-27T06:12:50.375Z,22.60
2022-09-27T06:16:19.769Z,21.00
2022-09-27T06:19:24.539Z,25.00
2022-09-27T06:22:28.146Z,22.00
2022-09-27T06:25:36.238Z,22.00
2022-09-27T06:28:58.569Z,23.40
2022-09-27T06:32:01.964Z,20.40
2022-09-27T06:35:39.297Z,19.00
2022-09-27T06:38:43.139Z,24.50
2022-09-27T06:41:57.917Z,20.00
2022-09-27T06:45:24.026Z,21.25
2022-09-27T06:48:53.968Z,21.60
2022-09-27T06:51:58.749Z,17.75
2022-09-27T06:55:02.019Z,20.40
2022-09-27T06:58:25.528Z,22.00
2022-09-27T07:01:48.185Z,21.33
2022-09-27T07:05:04.414Z,20.00
2022-09-27T07:08:20.728Z,23.00
2022-09-27T07:11:26.174Z,23.00
2022-09-27T07:14:30.592Z,24.00
2022-09-27T07:17:36.104Z,26.00
2022-09-27T07:20:39.971Z,24.00
2022-09-27T07:23:45.033Z,23.00
2022-09-27T07:26:50.425Z,23.60
2022-09-27T07:29:56.871Z,23.00
2022-09-27T07:33:04.072Z,25.00
2022-09-27T07:36:11.758Z,26.00
2022-09-27T07:39:19.352Z,27.50
2022-09-27T07:42:23.177Z,24.50
2022-09-27T07:45:30.370Z,28.00
2022-09-27T07:48:46.684Z,29.00
2022-09-27T07:52:05.471Z,26.50
2022-09-27T07:55:12.038Z,24.00
2022-09-27T07:58:44.517Z,28.60
2022-09-27T08:01:47.812Z,29.40
2022-09-27T08:04:54.455Z,25.25
2022-09-27T08:08:00.177Z,25.00
2022-09-27T08:11:14.108Z,27.00
2022-09-27T08:14:18.800Z,25.40
2022-09-27T08:17:24.359Z,27.50
2022-09-27T08:20:47.045Z,26.60
2022-09-27T08:24:05.813Z,27.60
2022-09-27T08:27:28.960Z,30.60
2022-09-27T08:30:34.687Z,26.25
2022-09-27T08:33:41.376Z,25.00
2022-09-27T08:36:46.541Z,24.40
2022-09-27T08:39:49.762Z,25.00
2022-09-27T08:43:06.701Z,24.75
2022-09-27T08:46:23.105Z,25.00
2022-09-27T08:49:35.132Z,25.75
2022-09-27T08:52:42.704Z,22.00
2022-09-27T08:55:51.851Z,21.00
2022-09-27T08:59:07.588Z,18.40
2022-09-27T09:02:19.766Z,19.40
2022-09-27T09:05:31.723Z,19.00
2022-09-27T09:08:50.841Z,19.60
2022-09-27T09:12:25.117Z,20.50
2022-09-27T09:19:25.644Z,16.80
2022-09-27T09:23:07.772Z,16.00
2022-09-27T09:26:19.249Z,18.00
2022-09-27T09:29:38.788Z,17.25
2022-09-27T09:32:53.974Z,17.50
2022-09-27T09:36:02.646Z,16.00
2022-09-27T09:39:13.377Z,17.20
2022-09-27T09:42:26.749Z,18.00
2022-09-27T09:45:32.522Z,19.60
2022-09-27T09:48:47.073Z,19.00
2022-09-27T09:51:57.051Z,17.60
2022-09-27T09:55:08.070Z,17.00
2022-09-27T09:58:22.992Z,17.40
2022-09-27T10:01:38.382Z,17.00
2022-09-27T10:04:41.829Z,18.00
2022-09-27T10:07:48.317Z,17.00
2022-09-27T10:10:51.801Z,16.20
2022-09-27T10:14:30.899Z,17.50
2022-09-27T10:17:43.589Z,18.00
2022-09-27T10:20:56.682Z,16.20
2022-09-27T10:24:10.455Z,15.75
2022-09-27T10:27:48.703Z,14.50
2022-09-27T10:30:59.394Z,15.60
2022-09-27T10:34:06.830Z,13.60
2022-09-27T10:37:18.876Z,14.00
2022-09-27T10:40:39.523Z,14.60
2022-09-27T10:43:45.136Z,15.00
2022-09-27T10:47:09.573Z,13.00
2022-09-27T10:50:50.235Z,12.40
2022-09-27T10:54:01.802Z,12.00
2022-09-27T10:57:20.919Z,12.40
2022-09-27T11:00:25.974Z,14.00
2022-09-27T11:03:31.626Z,12.60
2022-09-27T11:06:38.367Z,12.25
2022-09-27T11:09:50.736Z,13.00
2022-09-27T11:13:10.567Z,12.00
2022-09-27T11:16:28.495Z,12.00
2022-09-27T11:19:53.766Z,12.75
2022-09-27T11:23:17.805Z,12.00
2022-09-27T11:26:35.209Z,10.00
2022-09-27T11:29:52.100Z,11.00
2022-09-27T11:33:40.587Z,12.00
2022-09-27T11:36:57.012Z,10.00
2022-09-27T11:40:14.253Z,9.00
2022-09-27T11:43:41.863Z,10.00
2022-09-27T11:47:01.432Z,9.80
2022-09-27T11:50:35.603Z,10.00
2022-09-27T11:53:58.500Z,11.00
2022-09-27T11:57:16.822Z,11.40
2022-09-27T12:00:24.043Z,9.00
2022-09-27T12:04:06.744Z,8.33
2022-09-27T12:07:22.535Z,6.00
2022-09-27T12:10:26.202Z,6.60
2022-09-27T12:13:37.786Z,7.40
2022-09-27T12:16:43.022Z,5.50
2022-09-27T12:19:51.788Z,7.00
2022-09-27T12:23:04.257Z,7.00
2022-09-27T12:26:38.757Z,6.60
2022-09-27T12:29:45.282Z,6.00
2022-09-27T12:33:03.457Z,6.80
2022-09-27T12:36:17.279Z,7.00
2022-09-27T12:39:27.952Z,6.00
2022-09-27T12:42:51.424Z,7.00
2022-09-27T12:46:15.799Z,6.00
2022-09-27T12:49:25.956Z,5.00
2022-09-27T12:52:38.329Z,5.80
2022-09-27T12:56:11.857Z,5.40
2022-09-27T12:59:35.825Z,6.00
2022-09-27T13:03:26.395Z,5.00
2022-09-27T13:06:48.619Z,6.00
2022-09-27T13:10:15.792Z,5.50
2022-09-27T13:13:26.354Z,5.00
2022-09-27T13:16:30.271Z,5.00
2022-09-27T13:19:43.185Z,6.00
2022-09-27T13:22:49.571Z,6.00
2022-09-27T13:26:25.767Z,6.00
2022-09-27T13:29:34.395Z,5.00
2022-09-27T13:33:43.349Z,5.00
2022-09-27T13:36:49.707Z,6.20
2022-09-27T13:40:13.302Z,7.00
2022-09-27T13:43:47.743Z,4.00
2022-09-27T13:47:15.450Z,4.00
2022-09-27T13:50:27.282Z,4.00
2022-09-27T13:53:38.064Z,4.00
2022-09-27T13:56:54.156Z,3.00
2022-09-27T14:00:05.267Z,4.40
2022-09-27T14:03:31.818Z,5.00
2022-09-27T14:06:44.680Z,5.00
2022-09-27T14:09:53.213Z,5.80
2022-09-27T14:13:06.004Z,8.80
2022-09-27T14:16:21.408Z,4.40
2022-09-27T14:19:27.838Z,6.00
2022-09-27T14:22:32.196Z,5.80
2022-09-27T14:25:41.008Z,4.40
2022-09-27T14:28:44.343Z,4.60
2022-09-27T14:32:09.347Z,4.40
2022-09-27T14:35:44.576Z,5.50
2022-09-27T14:38:49.250Z,6.00
2022-09-27T14:41:58.701Z,6.00
2022-09-27T14:45:15.775Z,6.00
2022-09-27T14:48:24.335Z,6.00
2022-09-27T14:51:30.659Z,5.00
2022-09-27T14:54:34.015Z,6.00
2022-09-27T14:57:38.933Z,6.40
2022-09-27T15:00:50.206Z,6.60
2022-09-27T15:03:54.972Z,7.60
2022-09-27T15:07:08.233Z,7.00
2022-09-27T15:10:17.196Z,7.00
2022-09-27T15:13:21.215Z,7.40
2022-09-27T15:16:26.859Z,7.00
2022-09-27T15:19:31.617Z,8.20
2022-09-27T15:22:38.627Z,7.00
2022-09-27T15:25:58.638Z,8.00
2022-09-27T15:29:02.266Z,7.00
2022-09-27T15:32:08.191Z,7.00
2022-09-27T15:35:24.452Z,5.00
2022-09-27T15:38:31.073Z,5.00
2022-09-27T15:42:02.389Z,4.00
2022-09-27T15:45:29.414Z,3.00
2022-09-27T15:48:35.576Z,3.00
2022-09-27T15:51:41.870Z,5.00
2022-09-27T15:54:45.199Z,3.00
2022-09-27T15:57:52.409Z,5.40
2022-09-27T16:00:57.440Z,7.00
2022-09-27T16:04:01.430Z,5.40
2022-09-27T16:07:09.129Z,6.00
2022-09-27T16:10:15.734Z,5.00
2022-09-27T16:13:19.192Z,6.50
2022-09-27T16:16:23.727Z,7.50
2022-09-27T16:19:27.030Z,7.60
2022-09-27T16:22:31.863Z,7.00
2022-09-27T16:25:35.153Z,5.40
2022-09-27T16:28:38.376Z,7.00
2022-09-27T16:31:42.732Z,5.00
2022-09-27T16:34:46.048Z,7.00
2022-09-27T16:37:50.959Z,5.00
2022-09-27T16:40:54.875Z,5.40
2022-09-27T16:43:58.140Z,7.00
2022-09-27T16:47:01.586Z,7.00
2022-09-27T16:50:23.537Z,6.50
2022-09-27T16:53:28.976Z,7.00
2022-09-27T16:56:32.779Z,6.00
2022-09-27T16:59:36.237Z,6.00
2022-09-27T17:02:39.548Z,5.60
2022-09-27T17:05:42.788Z,6.40
2022-09-27T17:08:48.532Z,5.00
2022-09-27T17:11:52.265Z,8.00
2022-09-27T17:14:56.690Z,6.00
2022-09-27T17:18:00.008Z,6.00
2022-09-27T17:21:03.557Z,6.00
2022-09-27T17:24:09.072Z,5.00
2022-09-27T17:27:12.365Z,7.00
2022-09-27T17:30:15.852Z,7.00
2022-09-27T17:33:20.748Z,7.00
2022-09-27T17:36:25.916Z,6.33
2022-09-27T17:39:30.597Z,7.80
2022-09-27T17:42:34.969Z,5.00
2022-09-27T17:45:38.410Z,7.00
2022-09-27T17:48:59.461Z,6.00
2022-09-27T17:52:03.156Z,7.00
2022-09-27T17:55:08.685Z,8.60
2022-09-27T17:58:12.706Z,7.00
2022-09-27T18:01:17.351Z,7.80
2022-09-27T18:04:20.864Z,10.00
2022-09-27T18:07:24.302Z,8.00
2022-09-27T18:10:31.488Z,9.20
2022-09-27T18:13:40.685Z,10.50
2022-09-27T18:16:45.014Z,12.00
2022-09-27T18:19:48.271Z,10.00
2022-09-27T18:22:51.995Z,10.40
2022-09-27T18:25:58.193Z,12.00
2022-09-27T18:29:03.183Z,11.00
2022-09-27T18:35:28.835Z,10.25
2022-09-27T18:38:32.489Z,11.00
2022-09-27T18:41:37.252Z,12.40
2022-09-27T18:44:41.340Z,12.80
2022-09-27T18:47:44.615Z,12.25
2022-09-27T18:50:47.823Z,13.00
2022-09-27T18:53:55.655Z,14.50
2022-09-27T18:57:00.374Z,12.50
2022-09-27T19:00:04.815Z,12.00
2022-09-27T19:03:08.152Z,12.60
2022-09-27T19:06:14.671Z,13.00
2022-09-27T19:09:18.699Z,12.00
2022-09-27T19:12:23.820Z,12.80
2022-09-27T19:15:27.036Z,11.60
2022-09-27T19:18:30.609Z,13.00
2022-09-27T19:21:33.892Z,13.75
2022-09-27T19:24:37.105Z,16.00
2022-09-27T19:27:43.322Z,13.33
2022-09-27T19:30:47.041Z,13.00
2022-09-27T19:33:50.828Z,12.80
2022-09-27T19:36:54.503Z,15.40
2022-09-27T19:39:57.710Z,14.00
2022-09-27T19:43:02.776Z,12.00
2022-09-27T19:46:06.794Z,15.00
2022-09-27T19:49:10.137Z,15.75
2022-09-27T19:52:13.429Z,15.60
2022-09-27T19:55:17.190Z,15.00
2022-09-27T19:58:21.796Z,16.20
2022-09-27T20:01:26.830Z,14.00
2022-09-27T20:04:30.103Z,14.00
2022-09-27T20:07:35.075Z,13.00
2022-09-27T20:10:38.564Z,15.40
2022-09-27T20:13:43.852Z,14.40
2022-09-27T20:16:47.148Z,14.60
2022-09-27T20:19:50.603Z,12.00
2022-09-27T20:22:53.832Z,13.20
2022-09-27T20:26:01.605Z,15.00
2022-09-27T20:29:07.708Z,12.00
2022-09-27T20:32:26.848Z,15.60
2022-09-27T20:35:31.584Z,14.00
2022-09-27T20:38:35.049Z,13.40
2022-09-27T20:41:39.978Z,8.00
2022-09-27T20:44:44.736Z,15.40
2022-09-27T20:47:48.239Z,12.00
2022-09-27T20:50:56.618Z,10.50
2022-09-27T20:54:00.474Z,11.00
2022-09-27T20:57:03.644Z,12.40
2022-09-27T21:00:10.150Z,13.00
2022-09-27T21:03:14.344Z,10.00
2022-09-27T21:06:22.953Z,11.00
2022-09-27T21:09:26.269Z,10.00
2022-09-27T21:12:30.842Z,11.00
2022-09-27T21:15:35.809Z,12.00
2022-09-27T21:18:39.839Z,12.60
2022-09-27T21:21:43.462Z,14.00
2022-09-27T21:24:46.711Z,10.40
2022-09-27T21:27:55.469Z,12.00
2022-09-27T21:31:03.073Z,15.00
2022-09-27T21:34:08.139Z,12.00
2022-09-27T21:37:12.049Z,13.00
2022-09-27T21:40:15.746Z,12.00
2022-09-27T21:43:19.325Z,15.60
2022-09-27T21:46:25.736Z,14.00
2022-09-27T21:49:30.097Z,11.00
2022-09-27T21:52:33.500Z,11.50
2022-09-27T21:55:37.194Z,12.60
2022-09-27T21:58:42.727Z,12.00
2022-09-27T22:01:47.720Z,14.00
2022-09-27T22:04:51.282Z,12.80
2022-09-27T22:07:54.554Z,13.60
2022-09-27T22:10:58.104Z,11.75
2022-09-27T22:14:02.123Z,13.75
2022-09-27T22:17:06.793Z,11.00
2022-09-27T22:20:10.470Z,10.60
2022-09-27T22:23:14.380Z,12.00
2022-09-27T22:26:19.616Z,9.75
2022-09-27T22:29:23.167Z,12.00
2022-09-27T22:32:28.050Z,11.00
2022-09-27T22:35:31.622Z,10.00
2022-09-27T22:38:35.234Z,11.00
2022-09-27T22:41:38.717Z,10.60
2022-09-27T22:44:42.141Z,12.00
2022-09-27T22:47:46.870Z,9.80
2022-09-27T22:50:50.165Z,10.00
2022-09-27T22:53:53.461Z,8.20
2022-09-27T22:56:57.497Z,9.75
2022-09-27T23:00:00.877Z,9.00
2022-09-27T23:03:05.560Z,11.00
2022-09-27T23:06:09.591Z,10.00
2022-09-27T23:09:13.059Z,10.20
2022-09-27T23:12:16.405Z,10.00
2022-09-27T23:15:20.013Z,10.00
2022-09-27T23:18:24.729Z,10.80
2022-09-27T23:21:29.017Z,8.00
2022-09-27T23:24:32.330Z,9.40
2022-09-27T23:27:45.334Z,7.40
2022-09-27T23:30:48.993Z,8.50
2022-09-27T23:33:54.544Z,8.80
2022-09-27T23:36:57.910Z,9.75
2022-09-27T23:40:01.195Z,8.00
2022-09-27T23:43:04.677Z,8.00
2022-09-27T23:46:09.812Z,8.60
2022-09-27T23:49:15.177Z,10.60
2022-09-27T23:52:18.505Z,11.60
2022-09-27T23:55:21.792Z,10.00
2022-09-27T23:58:25.236Z,9.20
